createdAt,value
2022-12-24T00:03:07.169Z,36.68
2022-12-24T00:08:15.513Z,45.39
2022-12-24T00:13:24.286Z,40.58
2022-12-24T00:18:32.657Z,44.26
2022-12-24T00:23:42.074Z,37.40
2022-12-24T00:28:50.557Z,40.85
2022-12-24T00:33:59.526Z,40.96
2022-12-24T00:39:08.118Z,43.54
2022-12-24T00:44:17.407Z,34.46
2022-12-24T00:49:26.308Z,41.14
2022-12-24T00:54:35.050Z,36.71
2022-12-24T00:59:43.744Z,38.55
2022-12-24T01:04:52.455Z,38.53
2022-12-24T01:10:01.198Z,33.54
2022-12-24T01:15:10.057Z,44.33
2022-12-24T01:20:18.412Z,43.88
2022-12-24T01:25:26.984Z,43.95
2022-12-24T01:30:35.466Z,39.75
2022-12-24T01:35:44.540Z,39.87
2022-12-24T01:40:53.054Z,36.34
2022-12-24T01:46:02.236Z,38.15
2022-12-24T01:51:10.657Z,41.50
2022-12-24T01:56:19.481Z,36.18
2022-12-24T02:01:28.085Z,37.65
2022-12-24T02:06:36.897Z,38.47
2022-12-24T02:11:45.667Z,33.35
2022-12-24T02:16:54.585Z,33.93
2022-12-24T02:22:02.687Z,31.77
2022-12-24T02:27:11.809Z,29.46
2022-12-24T02:32:20.474Z,34.94
2022-12-24T02:37:29.703Z,35.44
2022-12-24T02:42:38.135Z,30.56
2022-12-24T02:47:46.896Z,29.44
2022-12-24T02:52:55.101Z,30.76
2022-12-24T02:58:03.714Z,33.68
2022-12-24T03:03:12.420Z,31.04
2022-12-24T03:08:20.816Z,30.46
2022-12-24T03:13:29.422Z,29.84
2022-12-24T03:18:38.300Z,33.94
2022-12-24T03:23:46.940Z,32.83
2022-12-24T03:28:55.832Z,25.16
2022-12-24T03:34:04.669Z,25.54
2022-12-24T03:39:13.649Z,28.37
2022-12-24T03:44:22.666Z,25.61
2022-12-24T03:49:31.756Z,27.89
2022-12-24T03:54:40.026Z,25.11
2022-12-24T03:59:49.075Z,20.84
2022-12-24T04:04:57.537Z,23.34
2022-12-24T04:10:06.914Z,25.30
2022-12-24T04:15:15.659Z,23.10
2022-12-24T04:20:24.563Z,22.47
2022-12-24T04:25:32.846Z,22.80
2022-12-24T04:30:41.647Z,25.02
2022-12-24T04:35:49.844Z,20.75
2022-12-24T04:40:58.515Z,21.25
2022-12-24T04:46:06.977Z,21.33
2022-12-24T04:51:15.683Z,21.06
2022-12-24T04:56:24.132Z,26.56
2022-12-24T05:01:33.146Z,26.55
2022-12-24T05:06:41.664Z,23.73
2022-12-24T05:11:50.654Z,23.84
2022-12-24T05:16:59.429Z,26.42
2022-12-24T05:22:08.212Z,25.81
2022-12-24T05:27:16.314Z,25.52
2022-12-24T05:32:25.597Z,31.64
2022-12-24T05:37:34.416Z,32.45
2022-12-24T05:42:43.173Z,19.72
2022-12-24T05:47:51.707Z,15.65
2022-12-24T05:53:00.464Z,19.71
2022-12-24T05:58:08.854Z,20.52
2022-12-24T06:03:17.553Z,22.45
2022-12-24T06:08:26.200Z,31.57
2022-12-24T06:13:35.087Z,33.16
2022-12-24T06:23:49.402Z,35.52
2022-12-24T06:28:58.023Z,31.01
2022-12-24T06:34:07.058Z,28.11
2022-12-24T06:39:15.528Z,29.97
2022-12-24T06:44:24.317Z,25.88
2022-12-24T06:49:33.092Z,24.13
2022-12-24T06:54:41.451Z,25.39
2022-12-24T06:59:50.071Z,22.64
2022-12-24T07:04:59.078Z,24.64
2022-12-24T07:10:07.358Z,22.06
2022-12-24T07:15:15.917Z,21.08
2022-12-24T07:20:24.520Z,19.64
2022-12-24T07:25:33.520Z,18.00
2022-12-24T07:30:41.826Z,15.88
2022-12-24T07:35:55.812Z,15.67
2022-12-24T07:40:59.138Z,13.32
2022-12-24T07:46:08.486Z,12.63
2022-12-24T07:51:17.610Z,11.98
2022-12-24T07:56:26.260Z,11.96
2022-12-24T08:01:34.692Z,12.82
2022-12-24T08:06:43.297Z,12.16
2022-12-24T08:11:52.583Z,11.31
2022-12-24T08:17:00.382Z,10.37
2022-12-24T08:22:09.072Z,38.41
2022-12-24T08:27:18.223Z,13.71
2022-12-24T08:32:26.595Z,12.14
2022-12-24T08:37:35.760Z,9.65
2022-12-24T08:42:44.424Z,9.72
2022-12-24T08:47:53.554Z,9.81
2022-12-24T08:53:02.548Z,10.57
2022-12-24T08:58:11.303Z,10.28
2022-12-24T09:03:26.998Z,11.38
2022-12-24T09:08:28.154Z,11.66
2022-12-24T09:13:36.968Z,11.25
2022-12-24T09:18:45.917Z,10.80
2022-12-24T09:23:54.424Z,10.58
2022-12-24T09:29:03.401Z,10.55
2022-12-24T09:34:11.687Z,11.51
2022-12-24T09:39:20.941Z,12.39
2022-12-24T09:44:29.682Z,13.32
2022-12-24T09:49:38.875Z,11.33
2022-12-24T09:54:49.848Z,11.18
2022-12-24T09:59:55.124Z,12.31
2022-12-24T10:05:03.837Z,13.36
2022-12-24T10:10:12.489Z,11.35
2022-12-24T10:15:21.180Z,10.69
2022-12-24T10:20:30.527Z,10.96
2022-12-24T10:25:39.279Z,11.22
2022-12-24T10:30:48.891Z,11.92
2022-12-24T10:35:57.358Z,14.12
2022-12-24T10:41:06.500Z,15.87
2022-12-24T10:46:14.831Z,18.29
2022-12-24T10:51:23.580Z,16.94
2022-12-24T10:56:32.362Z,18.44
2022-12-24T11:01:41.562Z,18.19
2022-12-24T11:06:50.310Z,16.55
2022-12-24T11:12:03.745Z,16.47
2022-12-24T11:17:06.841Z,15.37
2022-12-24T11:22:15.798Z,13.73
2022-12-24T11:27:24.291Z,13.28
2022-12-24T11:32:33.001Z,13.71
2022-12-24T11:37:41.539Z,10.29
2022-12-24T11:42:50.571Z,9.74
2022-12-24T11:47:59.133Z,8.53
2022-12-24T11:53:07.796Z,9.14
2022-12-24T11:58:16.316Z,8.98
2022-12-24T12:03:24.951Z,8.87
2022-12-24T12:08:33.293Z,9.48
2022-12-24T12:13:42.404Z,9.48
2022-12-24T12:18:51.020Z,9.49
2022-12-24T12:23:59.973Z,10.01
2022-12-24T12:29:08.556Z,9.47
2022-12-24T12:34:17.731Z,9.29
2022-12-24T12:39:26.303Z,9.82
2022-12-24T12:44:35.244Z,9.06
2022-12-24T12:49:43.717Z,8.32
2022-12-24T12:54:53.107Z,8.62
2022-12-24T13:00:01.762Z,8.99
2022-12-24T13:05:10.945Z,9.36
2022-12-24T13:10:19.593Z,8.32
2022-12-24T13:15:28.533Z,7.83
2022-12-24T13:20:36.739Z,8.06
2022-12-24T13:25:45.837Z,8.38
2022-12-24T13:30:54.082Z,8.42
2022-12-24T13:36:02.776Z,8.84
2022-12-24T13:41:11.430Z,8.58
2022-12-24T13:46:20.569Z,9.37
2022-12-24T13:51:28.955Z,8.94
2022-12-24T13:56:37.502Z,8.62
2022-12-24T14:01:45.910Z,8.58
2022-12-24T14:06:54.495Z,9.17
2022-12-24T14:12:03.024Z,8.88
2022-12-24T14:17:12.104Z,9.79
2022-12-24T14:22:20.534Z,9.92
2022-12-24T14:27:29.342Z,10.14
2022-12-24T14:32:37.953Z,10.73
2022-12-24T14:37:47.201Z,9.83
2022-12-24T14:42:55.547Z,10.47
2022-12-24T14:48:04.513Z,10.73
2022-12-24T14:53:18.605Z,12.04
2022-12-24T14:58:21.061Z,10.82
2022-12-24T15:03:29.791Z,12.17
2022-12-24T15:08:38.552Z,11.47
2022-12-24T15:13:46.855Z,11.22
2022-12-24T15:18:55.731Z,12.06
2022-12-24T15:24:03.983Z,11.95
2022-12-24T15:29:12.765Z,12.40
2022-12-24T15:34:21.132Z,13.40
2022-12-24T15:39:29.862Z,14.33
2022-12-24T15:44:37.934Z,14.77
2022-12-24T15:49:46.466Z,14.59
2022-12-24T15:54:58.118Z,14.07
2022-12-24T16:00:03.332Z,11.61
2022-12-24T16:05:13.003Z,12.39
2022-12-24T16:10:21.404Z,10.42
2022-12-24T16:15:29.712Z,7.78
2022-12-24T16:20:37.998Z,6.44
2022-12-24T16:25:46.161Z,5.30
2022-12-24T16:30:54.948Z,4.48
2022-12-24T16:36:03.041Z,4.36
2022-12-24T16:41:11.289Z,6.23
2022-12-24T16:46:19.775Z,8.04
2022-12-24T16:51:28.245Z,8.33
2022-12-24T16:56:36.364Z,9.08
2022-12-24T17:01:45.087Z,8.87
2022-12-24T17:06:53.118Z,10.11
2022-12-24T17:12:01.880Z,6.95
2022-12-24T17:17:10.177Z,8.19
2022-12-24T17:22:18.522Z,8.60
2022-12-24T17:27:26.628Z,7.55
2022-12-24T17:32:35.220Z,5.72
2022-12-24T17:37:43.482Z,5.79
2022-12-24T17:42:52.754Z,5.24
2022-12-24T17:48:01.193Z,6.05
2022-12-24T17:53:09.714Z,7.15
2022-12-24T17:58:17.796Z,6.18
2022-12-24T18:03:27.382Z,3.75
2022-12-24T18:08:35.791Z,4.19
2022-12-24T18:13:44.708Z,6.31
2022-12-24T18:18:52.991Z,6.58
2022-12-24T18:24:01.584Z,6.15
2022-12-24T18:29:09.857Z,8.44
2022-12-24T18:34:19.447Z,9.92
2022-12-24T18:39:27.701Z,11.68
2022-12-24T18:44:39.641Z,10.76
2022-12-24T18:49:37.859Z,10.72
2022-12-24T18:54:46.353Z,8.94
2022-12-24T18:59:55.033Z,8.43
2022-12-24T19:05:03.890Z,7.89
2022-12-24T19:10:12.152Z,7.22
2022-12-24T19:15:22.413Z,6.35
2022-12-24T19:20:20.628Z,6.21
2022-12-24T19:25:29.091Z,6.23
2022-12-24T19:30:37.586Z,4.60
2022-12-24T19:35:46.554Z,4.66
2022-12-24T19:40:54.874Z,3.79
2022-12-24T19:46:03.912Z,4.31
2022-12-24T19:51:12.451Z,3.68
2022-12-24T19:56:21.407Z,3.02
2022-12-24T20:01:30.232Z,2.70
2022-12-24T20:06:38.566Z,2.56
2022-12-24T20:11:46.683Z,2.64
2022-12-24T20:16:55.724Z,2.67
2022-12-24T20:22:04.014Z,2.57
2022-12-24T20:27:12.832Z,2.44
2022-12-24T20:32:20.974Z,2.39
2022-12-24T20:37:29.727Z,2.67
2022-12-24T20:42:37.972Z,2.95
2022-12-24T20:47:46.730Z,3.51
2022-12-24T20:52:54.900Z,3.69
2022-12-24T20:58:03.449Z,3.53
2022-12-24T21:03:11.953Z,3.47
2022-12-24T21:08:20.659Z,3.44
2022-12-24T21:13:29.345Z,3.44
2022-12-24T21:18:38.236Z,3.84
2022-12-24T21:23:46.550Z,3.87
2022-12-24T21:28:55.423Z,3.44
2022-12-24T21:34:03.880Z,3.26
2022-12-24T21:39:12.395Z,3.63
2022-12-24T21:44:20.454Z,3.62
2022-12-24T21:49:29.195Z,3.83
2022-12-24T21:54:37.524Z,4.16
2022-12-24T21:59:46.180Z,4.05
2022-12-24T22:04:54.746Z,5.32
2022-12-24T22:10:03.442Z,5.70
2022-12-24T22:15:11.911Z,5.53
2022-12-24T22:20:20.929Z,4.86
2022-12-24T22:25:29.425Z,4.10
2022-12-24T22:30:38.139Z,3.64
2022-12-24T22:35:46.313Z,3.30
2022-12-24T22:40:55.073Z,3.68
2022-12-24T22:46:03.662Z,4.02
2022-12-24T22:51:12.224Z,4.32
2022-12-24T22:56:20.796Z,4.48
2022-12-24T23:01:29.408Z,4.50
2022-12-24T23:06:37.581Z,5.04
2022-12-24T23:11:46.198Z,4.71
2022-12-24T23:16:54.461Z,4.73
2022-12-24T23:22:02.933Z,3.94
2022-12-24T23:27:11.124Z,4.31
2022-12-24T23:32:19.552Z,4.38
2022-12-24T23:37:34.609Z,4.59
2022-12-24T23:42:35.993Z,4.08
2022-12-24T23:47:44.370Z,4.14
2022-12-24T23:52:53.175Z,3.24
2022-12-24T23:58:01.545Z,3.18
